createdAt,value
2018-08-28T00:01:42.168Z,24.20
2018-08-28T00:04:11.860Z,24.20
2018-08-28T00:06:41.695Z,24.20
2018-08-28T00:09:11.100Z,24.20
2018-08-28T00:11:40.412Z,24.20
2018-08-28T00:14:10.008Z,24.30
2018-08-28T00:16:39.629Z,24.30
2018-08-28T00:19:09.151Z,24.20
2018-08-28T00:21:41.293Z,24.20
2018-08-28T00:24:11.205Z,24.30
2018-08-28T00:26:40.714Z,24.20
2018-08-28T00:29:10.147Z,24.20
2018-08-28T00:31:39.557Z,24.20
2018-08-28T00:34:08.990Z,24.10
2018-08-28T00:36:40.901Z,24.10
2018-08-28T00:39:10.759Z,24.10
2018-08-28T00:41:43.064Z,24.10
2018-08-28T00:44:12.386Z,24.10
2018-08-28T00:46:41.855Z,24.00
2018-08-28T00:49:12.729Z,23.90
2018-08-28T00:51:42.094Z,23.90
2018-08-28T00:54:11.888Z,24.00
2018-08-28T00:56:41.295Z,23.90
2018-08-28T00:59:10.658Z,24.00
2018-08-28T01:01:39.549Z,23.90
2018-08-28T01:04:09.303Z,23.90
2018-08-28T01:06:38.967Z,23.90
2018-08-28T01:09:08.293Z,23.80
2018-08-28T01:11:38.241Z,23.90
2018-08-28T01:14:07.713Z,23.80
2018-08-28T01:16:37.324Z,23.80
2018-08-28T01:19:06.958Z,23.70
2018-08-28T01:21:36.533Z,23.70
2018-08-28T01:24:06.983Z,23.70
2018-08-28T01:26:37.278Z,23.50
2018-08-28T01:29:07.165Z,23.50
2018-08-28T01:31:36.854Z,23.40
2018-08-28T01:34:06.819Z,23.40
2018-08-28T01:36:36.436Z,23.30
2018-08-28T01:39:06.044Z,23.30
2018-08-28T01:41:35.666Z,23.10
2018-08-28T01:44:05.071Z,23.10
2018-08-28T01:46:36.628Z,23.00
2018-08-28T01:49:06.131Z,22.90
2018-08-28T01:51:36.758Z,22.80
2018-08-28T01:54:06.294Z,22.80
2018-08-28T01:56:35.576Z,22.70
2018-08-28T01:59:06.052Z,22.50
2018-08-28T02:01:35.708Z,22.40
2018-08-28T02:04:05.779Z,22.30
2018-08-28T02:06:36.231Z,22.30
2018-08-28T02:09:06.072Z,22.20
2018-08-28T02:11:35.368Z,22.10
2018-08-28T02:14:05.577Z,21.90
2018-08-28T02:16:35.526Z,21.90
2018-08-28T02:19:05.256Z,21.90
2018-08-28T02:21:34.869Z,21.80
2018-08-28T02:24:04.286Z,21.70
2018-08-28T02:26:33.917Z,21.60
2018-08-28T02:29:03.590Z,21.60
2018-08-28T02:31:33.425Z,21.50
2018-08-28T02:34:06.918Z,21.40
2018-08-28T02:36:36.700Z,21.40
2018-08-28T02:39:06.369Z,21.30
2018-08-28T02:41:35.825Z,21.30
2018-08-28T02:44:05.157Z,21.20
2018-08-28T02:46:36.100Z,21.20
2018-08-28T02:49:07.285Z,21.20
2018-08-28T02:51:37.512Z,21.20
2018-08-28T02:54:06.898Z,21.10
2018-08-28T02:56:36.419Z,21.10
2018-08-28T02:59:06.257Z,21.10
2018-08-28T03:01:36.587Z,21.00
2018-08-28T03:04:06.061Z,21.00
2018-08-28T03:06:36.071Z,20.90
2018-08-28T03:09:05.719Z,20.90
2018-08-28T03:11:35.788Z,20.80
2018-08-28T03:14:05.551Z,20.80
2018-08-28T03:16:35.078Z,20.70
2018-08-28T03:19:04.742Z,20.60
2018-08-28T03:21:34.589Z,20.60
2018-08-28T03:24:04.129Z,20.50
2018-08-28T03:26:35.380Z,20.40
2018-08-28T03:29:04.879Z,20.30
2018-08-28T03:31:35.158Z,20.30
2018-08-28T03:34:04.601Z,20.20
2018-08-28T03:36:34.333Z,20.20
2018-08-28T03:39:04.564Z,20.10
2018-08-28T03:41:34.207Z,20.00
2018-08-28T03:44:03.462Z,19.90
2018-08-28T03:46:33.092Z,19.80
2018-08-28T03:49:02.645Z,19.80
2018-08-28T03:51:33.064Z,19.70
2018-08-28T03:54:02.942Z,19.60
2018-08-28T03:56:32.551Z,19.50
2018-08-28T03:59:02.235Z,19.50
2018-08-28T04:01:31.813Z,19.40
2018-08-28T04:04:01.320Z,19.40
2018-08-28T04:06:30.849Z,19.30
2018-08-28T04:09:00.521Z,19.20
2018-08-28T04:11:30.836Z,19.10
2018-08-28T04:14:00.625Z,19.10
2018-08-28T04:16:30.542Z,19.00
2018-08-28T04:19:00.075Z,19.00
2018-08-28T04:21:29.633Z,18.90
2018-08-28T04:23:59.135Z,18.80
2018-08-28T04:26:28.445Z,18.80
2018-08-28T04:28:58.140Z,18.80
2018-08-28T04:31:28.088Z,18.80
2018-08-28T04:33:57.592Z,18.70
2018-08-28T04:36:27.261Z,18.70
2018-08-28T04:38:56.894Z,18.70
2018-08-28T04:41:26.494Z,18.70
2018-08-28T04:43:55.996Z,18.70
2018-08-28T04:46:26.966Z,18.60
2018-08-28T04:48:56.712Z,18.50
2018-08-28T04:51:26.704Z,18.50
2018-08-28T04:53:56.541Z,18.40
2018-08-28T04:56:26.966Z,18.30
2018-08-28T04:58:56.784Z,18.30
2018-08-28T05:01:26.944Z,18.30
2018-08-28T05:03:57.642Z,18.20
2018-08-28T05:06:27.747Z,18.20
2018-08-28T05:08:57.412Z,18.10
2018-08-28T05:11:26.716Z,18.10
2018-08-28T05:13:56.106Z,18.10
2018-08-28T05:16:25.573Z,18.00
2018-08-28T05:18:55.129Z,18.00
2018-08-28T05:21:24.429Z,17.90
2018-08-28T05:23:55.148Z,17.90
2018-08-28T05:26:24.568Z,17.90
2018-08-28T05:28:54.359Z,17.90
2018-08-28T05:31:23.821Z,17.90
2018-08-28T05:33:56.273Z,17.80
2018-08-28T05:36:25.620Z,17.80
2018-08-28T05:38:57.525Z,17.80
2018-08-28T05:41:27.600Z,17.80
2018-08-28T05:44:00.526Z,17.70
2018-08-28T05:46:30.817Z,17.70
2018-08-28T05:51:35.201Z,17.60
2018-08-28T05:54:05.632Z,17.50
2018-08-28T05:56:35.037Z,17.50
2018-08-28T05:59:06.841Z,17.50
2018-08-28T06:01:36.876Z,17.40
2018-08-28T06:04:08.403Z,17.30
2018-08-28T06:06:39.520Z,17.40
2018-08-28T06:09:09.997Z,17.30
2018-08-28T06:11:39.680Z,17.30
2018-08-28T06:14:11.363Z,17.30
2018-08-28T06:16:41.125Z,17.20
2018-08-28T06:19:10.626Z,17.20
2018-08-28T06:21:40.066Z,17.20
2018-08-28T06:24:10.397Z,17.10
2018-08-28T06:26:40.146Z,17.10
2018-08-28T06:29:12.301Z,17.00
2018-08-28T06:31:41.845Z,17.10
2018-08-28T06:34:11.333Z,17.00
2018-08-28T06:36:40.789Z,16.90
2018-08-28T06:39:10.520Z,16.80
2018-08-28T06:41:40.613Z,16.90
2018-08-28T06:44:11.157Z,16.80
2018-08-28T06:46:40.643Z,16.80
2018-08-28T06:49:11.258Z,16.80
2018-08-28T06:51:41.545Z,16.70
2018-08-28T06:54:11.023Z,16.80
2018-08-28T06:56:40.741Z,16.70
2018-08-28T06:59:10.312Z,16.70
2018-08-28T07:01:39.884Z,16.70
2018-08-28T07:04:09.302Z,16.70
2018-08-28T07:06:39.792Z,16.70
2018-08-28T07:09:09.020Z,16.70
2018-08-28T07:11:38.825Z,16.70
2018-08-28T07:14:08.552Z,16.60
2018-08-28T07:16:37.914Z,16.60
2018-08-28T07:19:07.936Z,16.60
2018-08-28T07:21:37.612Z,16.60
2018-08-28T07:24:07.164Z,16.60
2018-08-28T07:26:36.742Z,16.40
2018-08-28T07:29:06.434Z,16.40
2018-08-28T07:31:36.107Z,16.40
2018-08-28T07:34:06.546Z,16.50
2018-08-28T07:36:36.239Z,16.40
2018-08-28T07:39:06.530Z,16.50
2018-08-28T07:41:36.149Z,16.40
2018-08-28T07:44:05.599Z,16.40
2018-08-28T07:46:35.357Z,16.40
2018-08-28T07:49:04.639Z,16.40
2018-08-28T07:51:34.177Z,16.40
2018-08-28T07:54:04.306Z,16.40
2018-08-28T07:56:35.045Z,16.40
2018-08-28T07:59:05.158Z,16.40
2018-08-28T08:01:34.690Z,16.30
2018-08-28T08:04:04.133Z,16.20
2018-08-28T08:06:33.918Z,16.10
2018-08-28T08:09:03.763Z,16.10
2018-08-28T08:11:33.378Z,16.10
2018-08-28T08:14:03.611Z,16.10
2018-08-28T08:16:32.664Z,16.10
2018-08-28T08:19:02.108Z,16.00
2018-08-28T08:21:31.591Z,16.00
2018-08-28T08:24:01.732Z,16.00
2018-08-28T08:26:31.192Z,16.00
2018-08-28T08:29:02.011Z,16.00
2018-08-28T08:31:32.706Z,16.00
2018-08-28T08:34:02.514Z,15.90
2018-08-28T08:36:31.766Z,15.90
2018-08-28T08:39:02.112Z,15.90
2018-08-28T08:41:31.554Z,15.90
2018-08-28T08:44:00.995Z,15.90
2018-08-28T08:46:30.706Z,15.90
2018-08-28T08:49:00.556Z,15.90
2018-08-28T08:51:30.192Z,15.90
2018-08-28T08:54:00.046Z,15.90
2018-08-28T08:56:29.856Z,15.90
2018-08-28T08:59:00.119Z,16.00
2018-08-28T09:01:29.733Z,16.00
2018-08-28T09:03:59.284Z,16.00
2018-08-28T09:06:31.176Z,16.00
2018-08-28T09:09:00.579Z,15.90
2018-08-28T09:11:30.377Z,16.00
2018-08-28T09:14:00.043Z,15.90
2018-08-28T09:16:29.372Z,15.90
2018-08-28T09:18:59.100Z,15.80
2018-08-28T09:21:28.690Z,15.80
2018-08-28T09:23:59.181Z,15.80
2018-08-28T09:26:29.076Z,15.80
2018-08-28T09:28:58.673Z,15.80
2018-08-28T09:31:28.299Z,15.70
2018-08-28T09:33:57.814Z,15.70
2018-08-28T09:36:27.178Z,15.70
2018-08-28T09:38:56.866Z,15.60
2018-08-28T09:41:26.964Z,15.50
2018-08-28T09:43:56.668Z,15.50
2018-08-28T09:46:26.014Z,15.50
2018-08-28T09:48:55.956Z,15.50
2018-08-28T09:51:25.526Z,15.50
2018-08-28T09:53:55.984Z,15.40
2018-08-28T09:56:25.612Z,15.40
2018-08-28T09:58:55.389Z,15.40
2018-08-28T10:01:24.986Z,15.40
2018-08-28T10:03:55.159Z,15.40
2018-08-28T10:06:24.567Z,15.30
2018-08-28T10:08:56.256Z,15.30
2018-08-28T10:11:25.777Z,15.20
2018-08-28T10:13:56.261Z,15.20
2018-08-28T10:16:25.874Z,15.20
2018-08-28T10:18:55.237Z,15.10
2018-08-28T10:21:24.906Z,15.10
2018-08-28T10:23:55.238Z,15.10
2018-08-28T10:26:24.796Z,15.00
2018-08-28T10:28:54.346Z,15.00
2018-08-28T10:31:23.695Z,15.00
2018-08-28T10:33:52.878Z,15.00
2018-08-28T10:36:22.558Z,15.10
2018-08-28T10:38:52.516Z,15.10
2018-08-28T10:41:22.181Z,15.10
2018-08-28T10:43:51.753Z,15.10
2018-08-28T10:46:21.417Z,15.00
2018-08-28T10:48:51.100Z,15.00
2018-08-28T10:51:22.923Z,14.90
2018-08-28T10:53:52.281Z,14.80
2018-08-28T10:56:21.992Z,14.90
2018-08-28T10:58:52.253Z,14.80
2018-08-28T11:01:21.795Z,14.80
2018-08-28T11:03:51.495Z,14.80
2018-08-28T11:06:20.710Z,14.80
2018-08-28T11:08:50.538Z,14.80
2018-08-28T11:11:20.557Z,14.80
2018-08-28T11:13:50.096Z,14.80
2018-08-28T11:16:20.035Z,14.80
2018-08-28T11:18:49.705Z,14.80
2018-08-28T11:21:19.110Z,14.80
2018-08-28T11:23:48.962Z,14.80
2018-08-28T11:26:18.516Z,14.70
2018-08-28T11:28:48.780Z,14.70
2018-08-28T11:31:18.122Z,14.70
2018-08-28T11:33:47.227Z,14.60
2018-08-28T11:36:17.081Z,14.60
2018-08-28T11:38:46.515Z,14.60
2018-08-28T11:41:16.047Z,14.60
2018-08-28T11:43:45.796Z,14.70
2018-08-28T11:46:15.259Z,14.70
2018-08-28T11:48:44.891Z,14.60
2018-08-28T11:51:14.300Z,14.70
2018-08-28T11:53:43.736Z,14.70
2018-08-28T11:56:13.919Z,14.60
2018-08-28T11:58:43.442Z,14.60
2018-08-28T12:01:12.979Z,14.60
2018-08-28T12:03:42.541Z,14.60
2018-08-28T12:06:12.226Z,14.60
2018-08-28T12:08:41.825Z,14.60
2018-08-28T12:11:11.441Z,14.70
2018-08-28T12:13:40.906Z,14.70
2018-08-28T12:16:10.808Z,14.70
2018-08-28T12:18:40.365Z,14.70
2018-08-28T12:21:09.998Z,14.70
2018-08-28T12:23:39.432Z,14.70
2018-08-28T12:26:09.322Z,14.70
2018-08-28T12:28:40.387Z,14.70
2018-08-28T12:31:09.749Z,14.70
2018-08-28T12:33:39.421Z,14.60
2018-08-28T12:36:08.854Z,14.60
2018-08-28T12:38:38.328Z,14.70
2018-08-28T12:41:08.042Z,14.60
2018-08-28T12:43:38.203Z,14.60
2018-08-28T12:46:07.794Z,14.60
2018-08-28T12:48:37.556Z,14.60
2018-08-28T12:51:06.714Z,14.60
2018-08-28T12:53:36.866Z,14.50
2018-08-28T12:56:06.426Z,14.50
2018-08-28T12:58:36.002Z,14.50
2018-08-28T13:01:06.506Z,14.40
2018-08-28T13:03:35.919Z,14.40
2018-08-28T13:06:05.633Z,14.40
2018-08-28T13:08:35.097Z,14.40
2018-08-28T13:11:04.555Z,14.40
2018-08-28T13:13:34.089Z,14.40
2018-08-28T13:16:03.467Z,14.40
2018-08-28T13:18:34.187Z,14.30
2018-08-28T13:21:04.462Z,14.30
2018-08-28T13:23:34.318Z,14.30
2018-08-28T13:26:04.032Z,14.30
2018-08-28T13:28:33.360Z,14.30
2018-08-28T13:31:03.757Z,14.30
2018-08-28T13:33:33.307Z,14.20
2018-08-28T13:36:03.226Z,14.30
2018-08-28T13:38:32.978Z,14.30
2018-08-28T13:41:02.803Z,14.20
2018-08-28T13:43:32.283Z,14.30
2018-08-28T13:46:01.530Z,14.30
2018-08-28T13:48:31.769Z,14.20
2018-08-28T13:51:01.159Z,14.20
2018-08-28T13:53:30.978Z,14.10
2018-08-28T13:56:01.203Z,14.10
2018-08-28T13:58:31.646Z,14.20
2018-08-28T14:01:01.172Z,14.20
2018-08-28T14:03:30.490Z,14.30
2018-08-28T14:06:00.264Z,14.30
2018-08-28T14:08:29.646Z,14.40
2018-08-28T14:10:59.144Z,14.40
2018-08-28T14:13:29.981Z,14.60
2018-08-28T14:15:59.524Z,14.60
2018-08-28T14:18:29.056Z,14.60
2018-08-28T14:20:58.615Z,14.70
2018-08-28T14:23:28.018Z,14.80
2018-08-28T14:25:57.789Z,14.80
2018-08-28T14:28:28.220Z,14.80
2018-08-28T14:30:58.677Z,14.90
2018-08-28T14:33:28.264Z,14.90
2018-08-28T14:35:58.790Z,15.00
2018-08-28T14:38:28.318Z,15.00
2018-08-28T14:40:58.854Z,15.00
2018-08-28T14:43:28.424Z,15.10
2018-08-28T14:45:58.560Z,15.20
2018-08-28T14:48:28.926Z,15.30
2018-08-28T14:50:59.428Z,15.30
2018-08-28T14:53:29.104Z,15.30
2018-08-28T14:55:59.037Z,15.40
2018-08-28T14:58:28.254Z,15.70
2018-08-28T15:00:59.928Z,16.30
2018-08-28T15:03:29.385Z,16.90
2018-08-28T15:05:58.868Z,17.10
2018-08-28T15:08:29.130Z,16.80
2018-08-28T15:10:58.512Z,16.60
2018-08-28T15:13:27.952Z,16.50
2018-08-28T15:15:57.914Z,16.40
2018-08-28T15:18:27.387Z,16.30
2018-08-28T15:20:56.915Z,16.30
2018-08-28T15:23:27.314Z,16.40
2018-08-28T15:25:56.590Z,16.50
2018-08-28T15:28:26.906Z,16.60
2018-08-28T15:30:56.228Z,16.60
2018-08-28T15:33:25.884Z,16.60
2018-08-28T15:35:55.324Z,16.60
2018-08-28T15:38:25.655Z,16.80
2018-08-28T15:40:55.729Z,16.90
2018-08-28T15:43:25.406Z,17.00
2018-08-28T15:45:54.648Z,17.10
2018-08-28T15:48:24.164Z,17.20
2018-08-28T15:50:53.792Z,17.40
2018-08-28T15:53:24.617Z,17.60
2018-08-28T15:55:54.138Z,17.80
2018-08-28T15:58:23.705Z,18.00
2018-08-28T16:00:54.345Z,18.20
2018-08-28T16:03:23.682Z,18.30
2018-08-28T16:05:54.246Z,18.60
2018-08-28T16:08:23.876Z,19.20
2018-08-28T16:10:53.321Z,21.20
2018-08-28T16:13:22.680Z,21.30
2018-08-28T16:15:52.083Z,21.70
2018-08-28T16:18:25.625Z,21.80
2018-08-28T16:20:55.355Z,22.10
2018-08-28T16:23:24.873Z,22.30
2018-08-28T16:25:54.657Z,22.30
2018-08-28T16:28:24.328Z,22.70
2018-08-28T16:30:53.929Z,22.50
2018-08-28T16:33:23.571Z,22.40
2018-08-28T16:35:53.908Z,22.30
2018-08-28T16:38:24.525Z,22.40
2018-08-28T16:40:55.159Z,22.50
2018-08-28T16:43:24.640Z,22.50
2018-08-28T16:45:54.220Z,22.50
2018-08-28T16:48:24.092Z,22.30
2018-08-28T16:50:54.700Z,22.70
2018-08-28T16:53:24.197Z,22.70
2018-08-28T16:55:54.070Z,22.70
2018-08-28T16:58:23.741Z,24.20
2018-08-28T17:00:53.107Z,28.50
2018-08-28T17:03:22.861Z,31.90
2018-08-28T17:05:52.467Z,34.50
2018-08-28T17:08:22.386Z,36.60
2018-08-28T17:10:53.807Z,36.00
2018-08-28T17:13:23.190Z,35.00
2018-08-28T17:15:52.724Z,36.80
2018-08-28T17:18:22.965Z,38.90
2018-08-28T17:20:52.559Z,40.60
2018-08-28T17:23:22.273Z,42.00
2018-08-28T17:25:53.052Z,43.20
2018-08-28T17:28:22.594Z,42.90
2018-08-28T17:30:52.334Z,43.30
2018-08-28T17:33:22.803Z,43.60
2018-08-28T17:35:52.198Z,43.60
2018-08-28T17:38:21.623Z,42.80
2018-08-28T17:40:51.001Z,43.50
2018-08-28T17:43:20.687Z,44.50
2018-08-28T17:45:51.426Z,45.90
2018-08-28T17:48:20.878Z,45.80
2018-08-28T17:50:50.450Z,46.10
2018-08-28T17:53:19.950Z,46.70
2018-08-28T17:55:49.567Z,47.00
2018-08-28T17:58:19.341Z,47.30
2018-08-28T18:00:49.730Z,47.00
2018-08-28T18:03:19.289Z,46.90
2018-08-28T18:05:48.895Z,46.40
2018-08-28T18:08:18.611Z,47.00
2018-08-28T18:10:49.022Z,46.80
2018-08-28T18:13:20.426Z,46.70
2018-08-28T18:15:49.710Z,47.50
2018-08-28T18:18:19.451Z,47.60
2018-08-28T18:20:51.091Z,48.00
2018-08-28T18:23:22.296Z,47.60
2018-08-28T18:25:52.726Z,46.60
2018-08-28T18:28:22.296Z,43.30
2018-08-28T18:30:51.539Z,39.20
2018-08-28T18:33:22.180Z,36.90
2018-08-28T18:35:55.092Z,35.30
2018-08-28T18:38:25.069Z,34.50
2018-08-28T18:40:54.689Z,34.50
2018-08-28T18:43:24.407Z,32.40
2018-08-28T18:45:53.948Z,30.40
2018-08-28T18:48:23.598Z,29.00
2018-08-28T18:50:53.264Z,28.70
2018-08-28T18:53:22.828Z,28.30
2018-08-28T18:55:52.539Z,28.10
2018-08-28T18:58:22.089Z,28.40
2018-08-28T19:00:51.941Z,28.70
2018-08-28T19:03:21.674Z,28.30
2018-08-28T19:05:51.273Z,27.30
2018-08-28T19:08:20.227Z,26.50
2018-08-28T19:10:49.757Z,26.10
2018-08-28T19:13:19.272Z,25.80
2018-08-28T19:15:49.656Z,25.80
2018-08-28T19:18:19.917Z,25.80
2018-08-28T19:20:50.346Z,30.60
2018-08-28T19:23:20.054Z,30.50
2018-08-28T19:25:50.463Z,34.40
2018-08-28T19:28:20.795Z,34.30
2018-08-28T19:30:50.244Z,32.80
2018-08-28T19:33:21.208Z,30.70
2018-08-28T19:35:50.592Z,29.30
2018-08-28T19:38:19.849Z,28.80
2018-08-28T19:40:49.972Z,29.80
2018-08-28T19:43:19.566Z,29.20
2018-08-28T19:45:49.292Z,28.50
2018-08-28T19:48:19.536Z,28.60
2018-08-28T19:50:48.707Z,28.60
2018-08-28T19:53:18.973Z,28.60
2018-08-28T19:55:48.853Z,28.60
2018-08-28T19:58:19.290Z,28.30
2018-08-28T20:00:48.977Z,28.30
2018-08-28T20:03:18.982Z,28.40
2018-08-28T20:05:48.553Z,28.30
2018-08-28T20:08:18.113Z,27.80
2018-08-28T20:10:47.731Z,27.40
2018-08-28T20:13:17.327Z,27.40
2018-08-28T20:15:46.686Z,27.50
2018-08-28T20:18:16.309Z,27.50
2018-08-28T20:20:45.945Z,27.50
2018-08-28T20:23:15.778Z,27.20
2018-08-28T20:25:45.286Z,26.90
2018-08-28T20:28:15.000Z,26.70
2018-08-28T20:30:44.782Z,26.70
2018-08-28T20:33:15.833Z,26.70
2018-08-28T20:35:45.334Z,26.60
2018-08-28T20:38:19.006Z,26.40
2018-08-28T20:40:52.535Z,26.10
2018-08-28T20:43:21.930Z,25.80
2018-08-28T20:45:52.284Z,25.70
2018-08-28T20:48:22.081Z,25.60
2018-08-28T20:50:51.786Z,25.40
2018-08-28T20:53:21.460Z,25.30
2018-08-28T20:55:51.037Z,25.40
2018-08-28T20:58:20.623Z,25.50
2018-08-28T21:00:50.120Z,25.70
2018-08-28T21:03:19.574Z,26.00
2018-08-28T21:05:49.210Z,26.10
2018-08-28T21:08:18.242Z,26.20
2018-08-28T21:10:48.079Z,26.30
2018-08-28T21:13:17.748Z,26.30
2018-08-28T21:15:47.470Z,25.80
2018-08-28T21:18:16.856Z,25.40
2018-08-28T21:20:46.058Z,25.20
2018-08-28T21:23:15.350Z,25.10
2018-08-28T21:25:45.657Z,25.10
2018-08-28T21:28:16.012Z,25.10
2018-08-28T21:30:46.348Z,25.10
2018-08-28T21:33:17.196Z,25.20
2018-08-28T21:35:46.935Z,25.30
2018-08-28T21:38:16.593Z,25.30
2018-08-28T21:40:46.311Z,25.30
2018-08-28T21:43:15.548Z,25.40
2018-08-28T21:45:45.042Z,25.30
2018-08-28T21:48:14.525Z,25.60
2018-08-28T21:50:45.852Z,25.70
2018-08-28T21:53:15.436Z,25.70
2018-08-28T21:55:45.893Z,25.60
2018-08-28T21:58:15.664Z,25.60
2018-08-28T22:00:47.203Z,25.50
2018-08-28T22:03:16.675Z,25.20
2018-08-28T22:05:46.366Z,25.30
2018-08-28T22:08:16.433Z,25.50
2018-08-28T22:10:45.700Z,25.50
2018-08-28T22:13:15.419Z,25.20
2018-08-28T22:15:44.844Z,25.10
2018-08-28T22:18:14.980Z,24.90
2018-08-28T22:20:44.600Z,25.10
2018-08-28T22:23:14.936Z,25.10
2018-08-28T22:25:44.908Z,25.00
2018-08-28T22:28:14.971Z,25.10
2018-08-28T22:30:45.077Z,25.00
2018-08-28T22:33:14.775Z,25.00
2018-08-28T22:35:44.105Z,25.00
2018-08-28T22:38:15.018Z,25.10
2018-08-28T22:40:45.245Z,25.20
2018-08-28T22:43:14.752Z,25.20
2018-08-28T22:45:44.876Z,25.40
2018-08-28T22:48:14.475Z,25.40
2018-08-28T22:50:44.093Z,25.50
2018-08-28T22:53:14.363Z,25.50
2018-08-28T22:55:44.002Z,25.60
2018-08-28T22:58:14.444Z,25.70
2018-08-28T23:00:43.856Z,25.60
2018-08-28T23:03:14.571Z,25.70
2018-08-28T23:05:44.045Z,25.70
2018-08-28T23:08:13.792Z,25.50
2018-08-28T23:10:43.216Z,25.40
2018-08-28T23:13:13.518Z,25.80
2018-08-28T23:15:43.256Z,25.80
2018-08-28T23:18:12.958Z,25.80
2018-08-28T23:20:42.995Z,26.10
2018-08-28T23:23:12.363Z,26.10
2018-08-28T23:25:41.972Z,26.10
2018-08-28T23:28:12.207Z,25.70
2018-08-28T23:30:41.905Z,25.80
2018-08-28T23:33:11.277Z,25.70
2018-08-28T23:35:40.863Z,25.60
2018-08-28T23:38:10.447Z,25.30
2018-08-28T23:40:40.908Z,25.30
2018-08-28T23:43:10.388Z,25.30
2018-08-28T23:45:40.558Z,25.30
2018-08-28T23:48:10.679Z,25.40
2018-08-28T23:50:40.305Z,25.30
2018-08-28T23:53:09.835Z,25.20
2018-08-28T23:55:39.221Z,25.30
2018-08-28T23:58:09.516Z,25.30
